sensor_id;sensor_type;location;lat;lon;timestamp;P1;durP1;ratioP1;P2;durP2;ratioP2
77544;SDS011;66672;50.328;7.610;2023-08-12T00:01:25;8.20;;;4.30;;
77544;SDS011;66672;50.328;7.610;2023-08-12T00:03:51;8.88;;;4.35;;
77544;SDS011;66672;50.328;7.610;2023-08-12T00:06:16;8.18;;;4.57;;
77544;SDS011;66672;50.328;7.610;2023-08-12T00:08:41;11.32;;;4.65;;
77544;SDS011;66672;50.328;7.610;2023-08-12T00:11:06;10.60;;;5.13;;
77544;SDS011;66672;50.328;7.610;2023-08-12T00:13:32;9.50;;;5.65;;
77544;SDS011;66672;50.328;7.610;2023-08-12T00:15:57;8.60;;;4.97;;
77544;SDS011;66672;50.328;7.610;2023-08-12T00:18:22;9.55;;;5.82;;
77544;SDS011;66672;50.328;7.610;2023-08-12T00:20:47;8.45;;;5.68;;
77544;SDS011;66672;50.328;7.610;2023-08-12T00:23:12;11.37;;;5.00;;
77544;SDS011;66672;50.328;7.610;2023-08-12T00:25:38;11.98;;;6.05;;
77544;SDS011;66672;50.328;7.610;2023-08-12T00:28:03;10.70;;;5.65;;
77544;SDS011;66672;50.328;7.610;2023-08-12T00:30:28;10.25;;;4.60;;
77544;SDS011;66672;50.328;7.610;2023-08-12T00:32:53;8.95;;;5.38;;
77544;SDS011;66672;50.328;7.610;2023-08-12T00:35:18;11.97;;;5.77;;
77544;SDS011;66672;50.328;7.610;2023-08-12T00:37:44;9.60;;;6.07;;
77544;SDS011;66672;50.328;7.610;2023-08-12T00:40:10;12.68;;;5.28;;
77544;SDS011;66672;50.328;7.610;2023-08-12T00:42:35;9.77;;;5.32;;
77544;SDS011;66672;50.328;7.610;2023-08-12T00:45:00;8.55;;;5.60;;
77544;SDS011;66672;50.328;7.610;2023-08-12T00:47:26;10.07;;;5.63;;
77544;SDS011;66672;50.328;7.610;2023-08-12T00:49:52;8.57;;;5.38;;
77544;SDS011;66672;50.328;7.610;2023-08-12T00:52:17;7.90;;;5.13;;
77544;SDS011;66672;50.328;7.610;2023-08-12T00:54:43;12.77;;;7.75;;
77544;SDS011;66672;50.328;7.610;2023-08-12T00:57:08;15.88;;;9.07;;
77544;SDS011;66672;50.328;7.610;2023-08-12T00:59:36;10.40;;;6.93;;
77544;SDS011;66672;50.328;7.610;2023-08-12T01:02:02;10.23;;;5.63;;
77544;SDS011;66672;50.328;7.610;2023-08-12T01:04:27;9.40;;;6.45;;
77544;SDS011;66672;50.328;7.610;2023-08-12T01:06:53;9.68;;;6.03;;
77544;SDS011;66672;50.328;7.610;2023-08-12T01:09:18;11.05;;;6.40;;
77544;SDS011;66672;50.328;7.610;2023-08-12T01:14:22;9.15;;;6.47;;
77544;SDS011;66672;50.328;7.610;2023-08-12T01:16:49;11.35;;;7.20;;
77544;SDS011;66672;50.328;7.610;2023-08-12T01:19:49;13.93;;;7.28;;
77544;SDS011;66672;50.328;7.610;2023-08-12T01:22:09;12.13;;;7.22;;
77544;SDS011;66672;50.328;7.610;2023-08-12T01:24:35;11.30;;;7.22;;
77544;SDS011;66672;50.328;7.610;2023-08-12T01:27:01;14.15;;;8.40;;
77544;SDS011;66672;50.328;7.610;2023-08-12T01:29:26;12.98;;;8.68;;
77544;SDS011;66672;50.328;7.610;2023-08-12T01:31:53;12.48;;;8.13;;
77544;SDS011;66672;50.328;7.610;2023-08-12T01:34:22;14.00;;;8.77;;
77544;SDS011;66672;50.328;7.610;2023-08-12T01:36:51;12.88;;;8.32;;
77544;SDS011;66672;50.328;7.610;2023-08-12T01:39:19;12.07;;;8.60;;
77544;SDS011;66672;50.328;7.610;2023-08-12T01:41:45;12.35;;;8.32;;
77544;SDS011;66672;50.328;7.610;2023-08-12T01:44:10;14.57;;;9.80;;
77544;SDS011;66672;50.328;7.610;2023-08-12T01:46:35;18.48;;;13.68;;
77544;SDS011;66672;50.328;7.610;2023-08-12T01:49:01;17.00;;;12.30;;
77544;SDS011;66672;50.328;7.610;2023-08-12T01:51:26;16.20;;;11.07;;
77544;SDS011;66672;50.328;7.610;2023-08-12T01:53:51;16.55;;;12.35;;
77544;SDS011;66672;50.328;7.610;2023-08-12T01:56:16;20.95;;;14.80;;
77544;SDS011;66672;50.328;7.610;2023-08-12T01:58:41;16.47;;;12.30;;
77544;SDS011;66672;50.328;7.610;2023-08-12T02:01:06;15.48;;;8.80;;
77544;SDS011;66672;50.328;7.610;2023-08-12T02:03:31;12.27;;;8.70;;
77544;SDS011;66672;50.328;7.610;2023-08-12T02:05:57;13.40;;;9.43;;
77544;SDS011;66672;50.328;7.610;2023-08-12T02:08:22;13.27;;;10.90;;
77544;SDS011;66672;50.328;7.610;2023-08-12T02:10:47;14.68;;;10.75;;
77544;SDS011;66672;50.328;7.610;2023-08-12T02:13:12;16.20;;;11.17;;
77544;SDS011;66672;50.328;7.610;2023-08-12T02:15:37;13.77;;;10.83;;
77544;SDS011;66672;50.328;7.610;2023-08-12T02:18:03;14.23;;;10.87;;
77544;SDS011;66672;50.328;7.610;2023-08-12T02:20:28;16.27;;;12.35;;
77544;SDS011;66672;50.328;7.610;2023-08-12T02:22:53;14.23;;;10.60;;
77544;SDS011;66672;50.328;7.610;2023-08-12T02:25:18;15.15;;;11.45;;
77544;SDS011;66672;50.328;7.610;2023-08-12T02:27:43;12.57;;;10.93;;
77544;SDS011;66672;50.328;7.610;2023-08-12T02:30:09;14.50;;;10.53;;
77544;SDS011;66672;50.328;7.610;2023-08-12T02:32:34;15.52;;;12.07;;
77544;SDS011;66672;50.328;7.610;2023-08-12T02:34:59;16.15;;;10.95;;
77544;SDS011;66672;50.328;7.610;2023-08-12T02:37:25;13.20;;;11.00;;
77544;SDS011;66672;50.328;7.610;2023-08-12T02:39:50;13.93;;;11.00;;
77544;SDS011;66672;50.328;7.610;2023-08-12T02:42:15;14.17;;;10.33;;
77544;SDS011;66672;50.328;7.610;2023-08-12T02:44:40;9.65;;;7.18;;
77544;SDS011;66672;50.328;7.610;2023-08-12T02:47:05;9.63;;;7.23;;
77544;SDS011;66672;50.328;7.610;2023-08-12T02:49:30;8.27;;;6.50;;
77544;SDS011;66672;50.328;7.610;2023-08-12T02:51:56;9.07;;;6.68;;
77544;SDS011;66672;50.328;7.610;2023-08-12T02:54:21;8.07;;;6.20;;
77544;SDS011;66672;50.328;7.610;2023-08-12T02:56:46;10.18;;;8.10;;
77544;SDS011;66672;50.328;7.610;2023-08-12T02:59:11;11.97;;;9.07;;
77544;SDS011;66672;50.328;7.610;2023-08-12T03:01:36;11.60;;;7.55;;
77544;SDS011;66672;50.328;7.610;2023-08-12T03:04:02;10.40;;;7.60;;
77544;SDS011;66672;50.328;7.610;2023-08-12T03:06:27;8.95;;;7.40;;
77544;SDS011;66672;50.328;7.610;2023-08-12T03:08:52;10.47;;;8.60;;
77544;SDS011;66672;50.328;7.610;2023-08-12T03:11:18;9.77;;;7.27;;
77544;SDS011;66672;50.328;7.610;2023-08-12T03:13:44;9.18;;;7.38;;
77544;SDS011;66672;50.328;7.610;2023-08-12T03:16:13;10.68;;;7.60;;
77544;SDS011;66672;50.328;7.610;2023-08-12T03:18:41;12.98;;;7.47;;
77544;SDS011;66672;50.328;7.610;2023-08-12T03:21:09;10.25;;;7.38;;
77544;SDS011;66672;50.328;7.610;2023-08-12T03:23:37;7.32;;;6.20;;
77544;SDS011;66672;50.328;7.610;2023-08-12T03:26:03;8.07;;;6.85;;
77544;SDS011;66672;50.328;7.610;2023-08-12T03:28:28;10.43;;;8.15;;
77544;SDS011;66672;50.328;7.610;2023-08-12T03:30:53;13.57;;;10.93;;
77544;SDS011;66672;50.328;7.610;2023-08-12T03:33:19;14.25;;;11.10;;
77544;SDS011;66672;50.328;7.610;2023-08-12T03:35:45;13.65;;;11.25;;
77544;SDS011;66672;50.328;7.610;2023-08-12T03:38:10;14.30;;;10.35;;
77544;SDS011;66672;50.328;7.610;2023-08-12T03:40:37;11.30;;;9.03;;
77544;SDS011;66672;50.328;7.610;2023-08-12T03:43:03;11.43;;;9.63;;
77544;SDS011;66672;50.328;7.610;2023-08-12T03:45:28;8.07;;;6.40;;
77544;SDS011;66672;50.328;7.610;2023-08-12T03:47:53;6.20;;;4.37;;
77544;SDS011;66672;50.328;7.610;2023-08-12T03:50:18;7.05;;;5.40;;
77544;SDS011;66672;50.328;7.610;2023-08-12T03:52:43;4.50;;;3.50;;
77544;SDS011;66672;50.328;7.610;2023-08-12T03:55:08;12.00;;;8.73;;
77544;SDS011;66672;50.328;7.610;2023-08-12T03:57:34;11.23;;;9.35;;
77544;SDS011;66672;50.328;7.610;2023-08-12T03:59:59;12.90;;;10.63;;
77544;SDS011;66672;50.328;7.610;2023-08-12T04:02:24;10.68;;;9.55;;
77544;SDS011;66672;50.328;7.610;2023-08-12T04:04:49;14.18;;;10.23;;
77544;SDS011;66672;50.328;7.610;2023-08-12T04:07:14;16.50;;;14.10;;
77544;SDS011;66672;50.328;7.610;2023-08-12T04:09:39;15.23;;;12.60;;
77544;SDS011;66672;50.328;7.610;2023-08-12T04:12:05;16.13;;;12.33;;
77544;SDS011;66672;50.328;7.610;2023-08-12T04:14:30;15.93;;;12.48;;
77544;SDS011;66672;50.328;7.610;2023-08-12T04:16:55;15.23;;;12.30;;
77544;SDS011;66672;50.328;7.610;2023-08-12T04:19:20;16.13;;;13.35;;
77544;SDS011;66672;50.328;7.610;2023-08-12T04:21:46;15.83;;;12.27;;
77544;SDS011;66672;50.328;7.610;2023-08-12T04:24:11;16.08;;;12.80;;
77544;SDS011;66672;50.328;7.610;2023-08-12T04:26:37;14.75;;;12.43;;
77544;SDS011;66672;50.328;7.610;2023-08-12T04:29:02;16.60;;;12.60;;
77544;SDS011;66672;50.328;7.610;2023-08-12T04:31:27;15.18;;;11.15;;
77544;SDS011;66672;50.328;7.610;2023-08-12T04:33:52;14.87;;;11.93;;
77544;SDS011;66672;50.328;7.610;2023-08-12T04:36:17;13.57;;;11.23;;
77544;SDS011;66672;50.328;7.610;2023-08-12T04:38:43;13.60;;;9.90;;
77544;SDS011;66672;50.328;7.610;2023-08-12T04:41:08;9.70;;;8.27;;
77544;SDS011;66672;50.328;7.610;2023-08-12T04:43:33;12.55;;;8.80;;
77544;SDS011;66672;50.328;7.610;2023-08-12T04:45:58;12.13;;;8.90;;
77544;SDS011;66672;50.328;7.610;2023-08-12T04:48:24;12.27;;;9.27;;
77544;SDS011;66672;50.328;7.610;2023-08-12T04:50:49;13.75;;;9.75;;
77544;SDS011;66672;50.328;7.610;2023-08-12T04:53:14;11.10;;;8.45;;
77544;SDS011;66672;50.328;7.610;2023-08-12T04:55:40;12.55;;;9.50;;
77544;SDS011;66672;50.328;7.610;2023-08-12T04:58:05;12.02;;;8.85;;
77544;SDS011;66672;50.328;7.610;2023-08-12T05:00:30;15.32;;;10.95;;
77544;SDS011;66672;50.328;7.610;2023-08-12T05:02:55;11.88;;;9.45;;
77544;SDS011;66672;50.328;7.610;2023-08-12T05:05:20;13.77;;;10.10;;
77544;SDS011;66672;50.328;7.610;2023-08-12T05:07:45;11.70;;;9.30;;
77544;SDS011;66672;50.328;7.610;2023-08-12T05:10:14;13.50;;;9.40;;
77544;SDS011;66672;50.328;7.610;2023-08-12T05:12:40;15.27;;;10.20;;
77544;SDS011;66672;50.328;7.610;2023-08-12T05:15:05;12.33;;;10.03;;
77544;SDS011;66672;50.328;7.610;2023-08-12T05:17:31;11.45;;;8.98;;
77544;SDS011;66672;50.328;7.610;2023-08-12T05:19:56;10.87;;;8.70;;
77544;SDS011;66672;50.328;7.610;2023-08-12T05:22:21;10.02;;;8.85;;
77544;SDS011;66672;50.328;7.610;2023-08-12T05:24:46;9.13;;;7.37;;
77544;SDS011;66672;50.328;7.610;2023-08-12T05:27:12;8.55;;;6.10;;
77544;SDS011;66672;50.328;7.610;2023-08-12T05:29:37;9.13;;;6.60;;
77544;SDS011;66672;50.328;7.610;2023-08-12T05:32:02;9.15;;;6.78;;
77544;SDS011;66672;50.328;7.610;2023-08-12T05:34:27;8.88;;;7.47;;
77544;SDS011;66672;50.328;7.610;2023-08-12T05:36:53;9.95;;;8.02;;
77544;SDS011;66672;50.328;7.610;2023-08-12T05:39:18;11.27;;;7.32;;
77544;SDS011;66672;50.328;7.610;2023-08-12T05:41:43;11.18;;;8.50;;
77544;SDS011;66672;50.328;7.610;2023-08-12T05:44:08;11.52;;;8.70;;
77544;SDS011;66672;50.328;7.610;2023-08-12T05:46:33;12.65;;;8.70;;
77544;SDS011;66672;50.328;7.610;2023-08-12T05:48:58;15.05;;;10.13;;
77544;SDS011;66672;50.328;7.610;2023-08-12T05:51:24;18.85;;;11.70;;
77544;SDS011;66672;50.328;7.610;2023-08-12T05:53:49;18.63;;;12.55;;
77544;SDS011;66672;50.328;7.610;2023-08-12T05:56:15;17.60;;;12.52;;
77544;SDS011;66672;50.328;7.610;2023-08-12T05:58:40;19.30;;;14.23;;
77544;SDS011;66672;50.328;7.610;2023-08-12T06:01:05;25.88;;;16.15;;
77544;SDS011;66672;50.328;7.610;2023-08-12T06:03:30;21.92;;;14.15;;
77544;SDS011;66672;50.328;7.610;2023-08-12T06:05:55;16.73;;;12.07;;
77544;SDS011;66672;50.328;7.610;2023-08-12T06:08:21;15.77;;;11.53;;
77544;SDS011;66672;50.328;7.610;2023-08-12T06:10:46;14.73;;;10.35;;
77544;SDS011;66672;50.328;7.610;2023-08-12T06:13:11;13.13;;;10.02;;
77544;SDS011;66672;50.328;7.610;2023-08-12T06:15:36;13.07;;;9.77;;
77544;SDS011;66672;50.328;7.610;2023-08-12T06:18:02;13.05;;;10.50;;
77544;SDS011;66672;50.328;7.610;2023-08-12T06:20:27;16.00;;;10.45;;
77544;SDS011;66672;50.328;7.610;2023-08-12T06:22:52;13.25;;;10.15;;
77544;SDS011;66672;50.328;7.610;2023-08-12T06:25:17;14.00;;;9.65;;
77544;SDS011;66672;50.328;7.610;2023-08-12T06:27:43;11.40;;;9.05;;
77544;SDS011;66672;50.328;7.610;2023-08-12T06:30:08;12.60;;;9.18;;
77544;SDS011;66672;50.328;7.610;2023-08-12T06:32:34;9.43;;;7.95;;
77544;SDS011;66672;50.328;7.610;2023-08-12T06:34:59;10.13;;;7.93;;
77544;SDS011;66672;50.328;7.610;2023-08-12T06:37:24;10.33;;;7.97;;
77544;SDS011;66672;50.328;7.610;2023-08-12T06:39:50;9.68;;;8.00;;
77544;SDS011;66672;50.328;7.610;2023-08-12T06:42:15;11.50;;;7.93;;
77544;SDS011;66672;50.328;7.610;2023-08-12T06:44:40;9.75;;;7.70;;
77544;SDS011;66672;50.328;7.610;2023-08-12T06:47:06;8.88;;;7.95;;
77544;SDS011;66672;50.328;7.610;2023-08-12T06:49:31;8.77;;;7.87;;
77544;SDS011;66672;50.328;7.610;2023-08-12T06:51:56;10.23;;;8.70;;
77544;SDS011;66672;50.328;7.610;2023-08-12T06:54:21;15.05;;;8.93;;
77544;SDS011;66672;50.328;7.610;2023-08-12T06:56:48;10.77;;;7.13;;
77544;SDS011;66672;50.328;7.610;2023-08-12T06:59:13;11.30;;;7.95;;
77544;SDS011;66672;50.328;7.610;2023-08-12T07:01:38;8.23;;;6.67;;
77544;SDS011;66672;50.328;7.610;2023-08-12T07:04:03;9.77;;;7.07;;
77544;SDS011;66672;50.328;7.610;2023-08-12T07:06:28;8.48;;;7.57;;
77544;SDS011;66672;50.328;7.610;2023-08-12T07:08:53;9.45;;;7.05;;
77544;SDS011;66672;50.328;7.610;2023-08-12T07:11:19;9.52;;;7.13;;
77544;SDS011;66672;50.328;7.610;2023-08-12T07:13:44;9.52;;;7.07;;
77544;SDS011;66672;50.328;7.610;2023-08-12T07:16:11;10.70;;;7.55;;
77544;SDS011;66672;50.328;7.610;2023-08-12T07:18:36;9.95;;;7.85;;
77544;SDS011;66672;50.328;7.610;2023-08-12T07:21:01;8.63;;;7.23;;
77544;SDS011;66672;50.328;7.610;2023-08-12T07:23:26;11.30;;;7.15;;
77544;SDS011;66672;50.328;7.610;2023-08-12T07:25:52;11.32;;;7.35;;
77544;SDS011;66672;50.328;7.610;2023-08-12T07:28:17;8.75;;;7.13;;
77544;SDS011;66672;50.328;7.610;2023-08-12T07:30:42;8.20;;;6.50;;
77544;SDS011;66672;50.328;7.610;2023-08-12T07:33:07;9.50;;;7.85;;
77544;SDS011;66672;50.328;7.610;2023-08-12T07:35:33;9.13;;;6.95;;
77544;SDS011;66672;50.328;7.610;2023-08-12T07:37:58;9.15;;;7.70;;
77544;SDS011;66672;50.328;7.610;2023-08-12T07:40:23;10.10;;;7.72;;
77544;SDS011;66672;50.328;7.610;2023-08-12T07:42:48;12.07;;;8.52;;
77544;SDS011;66672;50.328;7.610;2023-08-12T07:45:14;10.45;;;7.68;;
77544;SDS011;66672;50.328;7.610;2023-08-12T07:47:39;8.48;;;7.15;;
77544;SDS011;66672;50.328;7.610;2023-08-12T07:50:04;7.57;;;6.28;;
77544;SDS011;66672;50.328;7.610;2023-08-12T07:52:30;7.22;;;5.90;;
77544;SDS011;66672;50.328;7.610;2023-08-12T07:54:55;8.02;;;6.35;;
77544;SDS011;66672;50.328;7.610;2023-08-12T07:57:20;6.67;;;5.67;;
77544;SDS011;66672;50.328;7.610;2023-08-12T07:59:49;7.50;;;5.93;;
77544;SDS011;66672;50.328;7.610;2023-08-12T08:02:14;8.05;;;5.22;;
77544;SDS011;66672;50.328;7.610;2023-08-12T08:04:39;6.72;;;5.28;;
77544;SDS011;66672;50.328;7.610;2023-08-12T08:07:04;6.45;;;5.45;;
77544;SDS011;66672;50.328;7.610;2023-08-12T08:09:29;6.32;;;4.50;;
77544;SDS011;66672;50.328;7.610;2023-08-12T08:11:54;6.65;;;4.38;;
77544;SDS011;66672;50.328;7.610;2023-08-12T08:14:20;6.00;;;4.57;;
77544;SDS011;66672;50.328;7.610;2023-08-12T08:16:45;6.93;;;4.70;;
77544;SDS011;66672;50.328;7.610;2023-08-12T08:19:10;7.90;;;5.10;;
77544;SDS011;66672;50.328;7.610;2023-08-12T08:21:35;7.95;;;5.30;;
77544;SDS011;66672;50.328;7.610;2023-08-12T08:24:01;7.07;;;4.93;;
77544;SDS011;66672;50.328;7.610;2023-08-12T08:26:26;6.50;;;5.10;;
77544;SDS011;66672;50.328;7.610;2023-08-12T08:28:51;5.75;;;4.57;;
77544;SDS011;66672;50.328;7.610;2023-08-12T08:31:17;6.50;;;4.80;;
77544;SDS011;66672;50.328;7.610;2023-08-12T08:33:42;6.28;;;4.85;;
77544;SDS011;66672;50.328;7.610;2023-08-12T08:36:08;6.65;;;5.13;;
77544;SDS011;66672;50.328;7.610;2023-08-12T08:38:33;7.95;;;5.95;;
77544;SDS011;66672;50.328;7.610;2023-08-12T08:40:58;7.60;;;5.07;;
77544;SDS011;66672;50.328;7.610;2023-08-12T08:43:24;8.80;;;4.88;;
77544;SDS011;66672;50.328;7.610;2023-08-12T08:45:52;8.25;;;5.05;;
77544;SDS011;66672;50.328;7.610;2023-08-12T08:48:17;6.60;;;5.28;;
77544;SDS011;66672;50.328;7.610;2023-08-12T08:50:42;7.57;;;4.93;;
77544;SDS011;66672;50.328;7.610;2023-08-12T08:53:10;8.32;;;5.78;;
77544;SDS011;66672;50.328;7.610;2023-08-12T08:55:36;9.50;;;5.63;;
77544;SDS011;66672;50.328;7.610;2023-08-12T08:58:01;5.95;;;5.00;;
77544;SDS011;66672;50.328;7.610;2023-08-12T09:00:27;7.78;;;5.30;;
77544;SDS011;66672;50.328;7.610;2023-08-12T09:02:53;7.95;;;5.35;;
77544;SDS011;66672;50.328;7.610;2023-08-12T09:05:18;7.90;;;5.15;;
77544;SDS011;66672;50.328;7.610;2023-08-12T09:07:45;6.20;;;4.93;;
77544;SDS011;66672;50.328;7.610;2023-08-12T09:10:11;7.32;;;5.85;;
77544;SDS011;66672;50.328;7.610;2023-08-12T09:12:37;7.55;;;5.22;;
77544;SDS011;66672;50.328;7.610;2023-08-12T09:15:02;6.97;;;5.72;;
77544;SDS011;66672;50.328;7.610;2023-08-12T09:17:28;6.38;;;5.20;;
77544;SDS011;66672;50.328;7.610;2023-08-12T09:19:54;7.97;;;5.50;;
77544;SDS011;66672;50.328;7.610;2023-08-12T09:22:19;7.63;;;4.57;;
77544;SDS011;66672;50.328;7.610;2023-08-12T09:24:44;8.32;;;4.38;;
77544;SDS011;66672;50.328;7.610;2023-08-12T09:27:10;6.50;;;4.00;;
77544;SDS011;66672;50.328;7.610;2023-08-12T09:29:35;6.63;;;4.00;;
77544;SDS011;66672;50.328;7.610;2023-08-12T09:32:10;7.82;;;4.38;;
77544;SDS011;66672;50.328;7.610;2023-08-12T09:34:36;5.75;;;4.20;;
77544;SDS011;66672;50.328;7.610;2023-08-12T09:37:02;6.07;;;3.95;;
77544;SDS011;66672;50.328;7.610;2023-08-12T09:39:28;8.15;;;3.70;;
77544;SDS011;66672;50.328;7.610;2023-08-12T09:41:53;5.88;;;3.95;;
77544;SDS011;66672;50.328;7.610;2023-08-12T09:44:18;6.57;;;4.00;;
77544;SDS011;66672;50.328;7.610;2023-08-12T09:46:44;7.10;;;4.60;;
77544;SDS011;66672;50.328;7.610;2023-08-12T09:49:09;6.95;;;4.18;;
77544;SDS011;66672;50.328;7.610;2023-08-12T09:51:35;6.25;;;3.53;;
77544;SDS011;66672;50.328;7.610;2023-08-12T09:54:01;3.83;;;2.83;;
77544;SDS011;66672;50.328;7.610;2023-08-12T09:56:27;4.07;;;2.50;;
77544;SDS011;66672;50.328;7.610;2023-08-12T09:58:56;5.85;;;3.40;;
77544;SDS011;66672;50.328;7.610;2023-08-12T10:01:22;5.20;;;3.13;;
77544;SDS011;66672;50.328;7.610;2023-08-12T10:03:50;5.28;;;3.38;;
77544;SDS011;66672;50.328;7.610;2023-08-12T10:06:16;4.47;;;2.80;;
77544;SDS011;66672;50.328;7.610;2023-08-12T10:08:42;7.05;;;3.97;;
77544;SDS011;66672;50.328;7.610;2023-08-12T10:11:07;4.28;;;2.83;;
77544;SDS011;66672;50.328;7.610;2023-08-12T10:13:34;6.22;;;3.28;;
77544;SDS011;66672;50.328;7.610;2023-08-12T10:16:00;6.45;;;3.10;;
77544;SDS011;66672;50.328;7.610;2023-08-12T10:18:25;5.95;;;2.95;;
77544;SDS011;66672;50.328;7.610;2023-08-12T10:20:52;7.20;;;2.58;;
77544;SDS011;66672;50.328;7.610;2023-08-12T10:23:18;5.25;;;2.45;;
77544;SDS011;66672;50.328;7.610;2023-08-12T10:25:44;5.40;;;2.53;;
77544;SDS011;66672;50.328;7.610;2023-08-12T10:28:10;4.10;;;2.50;;
77544;SDS011;66672;50.328;7.610;2023-08-12T10:30:36;4.82;;;2.30;;
77544;SDS011;66672;50.328;7.610;2023-08-12T10:33:01;5.25;;;2.60;;
77544;SDS011;66672;50.328;7.610;2023-08-12T10:35:45;4.85;;;2.70;;
77544;SDS011;66672;50.328;7.610;2023-08-12T10:38:11;4.05;;;2.75;;
77544;SDS011;66672;50.328;7.610;2023-08-12T10:40:36;6.95;;;2.92;;
77544;SDS011;66672;50.328;7.610;2023-08-12T10:43:02;6.97;;;2.80;;
77544;SDS011;66672;50.328;7.610;2023-08-12T10:45:40;5.40;;;2.72;;
77544;SDS011;66672;50.328;7.610;2023-08-12T10:48:09;5.43;;;2.80;;
77544;SDS011;66672;50.328;7.610;2023-08-12T10:50:35;4.40;;;2.85;;
77544;SDS011;66672;50.328;7.610;2023-08-12T10:53:01;4.75;;;2.50;;
77544;SDS011;66672;50.328;7.610;2023-08-12T10:55:47;6.15;;;2.50;;
77544;SDS011;66672;50.328;7.610;2023-08-12T10:58:14;4.80;;;2.70;;
77544;SDS011;66672;50.328;7.610;2023-08-12T11:00:52;6.28;;;2.88;;
77544;SDS011;66672;50.328;7.610;2023-08-12T11:03:18;5.00;;;3.20;;
77544;SDS011;66672;50.328;7.610;2023-08-12T11:05:43;4.40;;;2.70;;
77544;SDS011;66672;50.328;7.610;2023-08-12T11:08:09;5.97;;;3.22;;
77544;SDS011;66672;50.328;7.610;2023-08-12T11:10:38;5.65;;;2.72;;
77544;SDS011;66672;50.328;7.610;2023-08-12T11:13:03;5.30;;;2.70;;
77544;SDS011;66672;50.328;7.610;2023-08-12T11:15:29;4.78;;;2.60;;
77544;SDS011;66672;50.328;7.610;2023-08-12T11:17:55;5.68;;;2.72;;
77544;SDS011;66672;50.328;7.610;2023-08-12T11:20:20;4.90;;;2.85;;
77544;SDS011;66672;50.328;7.610;2023-08-12T11:22:45;5.28;;;2.80;;
77544;SDS011;66672;50.328;7.610;2023-08-12T11:25:12;5.35;;;2.47;;
77544;SDS011;66672;50.328;7.610;2023-08-12T11:27:38;4.15;;;2.47;;
77544;SDS011;66672;50.328;7.610;2023-08-12T11:30:04;4.07;;;2.53;;
77544;SDS011;66672;50.328;7.610;2023-08-12T11:32:29;7.05;;;3.13;;
77544;SDS011;66672;50.328;7.610;2023-08-12T11:34:55;4.57;;;2.50;;
77544;SDS011;66672;50.328;7.610;2023-08-12T11:37:20;6.15;;;3.00;;
77544;SDS011;66672;50.328;7.610;2023-08-12T11:39:45;5.28;;;2.70;;
77544;SDS011;66672;50.328;7.610;2023-08-12T11:42:10;5.43;;;2.60;;
77544;SDS011;66672;50.328;7.610;2023-08-12T11:44:36;4.95;;;2.80;;
77544;SDS011;66672;50.328;7.610;2023-08-12T11:47:01;5.22;;;2.50;;
77544;SDS011;66672;50.328;7.610;2023-08-12T11:49:26;7.00;;;3.33;;
77544;SDS011;66672;50.328;7.610;2023-08-12T11:51:51;4.35;;;3.10;;
77544;SDS011;66672;50.328;7.610;2023-08-12T11:54:16;5.68;;;2.63;;
77544;SDS011;66672;50.328;7.610;2023-08-12T11:56:42;6.93;;;3.80;;
77544;SDS011;66672;50.328;7.610;2023-08-12T11:59:07;5.90;;;3.00;;
77544;SDS011;66672;50.328;7.610;2023-08-12T12:01:32;5.00;;;2.80;;
77544;SDS011;66672;50.328;7.610;2023-08-12T12:04:01;5.87;;;2.90;;
77544;SDS011;66672;50.328;7.610;2023-08-12T12:06:30;6.72;;;2.70;;
77544;SDS011;66672;50.328;7.610;2023-08-12T12:08:55;6.13;;;2.72;;
77544;SDS011;66672;50.328;7.610;2023-08-12T12:11:21;4.67;;;2.63;;
77544;SDS011;66672;50.328;7.610;2023-08-12T12:13:46;4.68;;;2.92;;
77544;SDS011;66672;50.328;7.610;2023-08-12T12:16:12;4.47;;;2.20;;
77544;SDS011;66672;50.328;7.610;2023-08-12T12:18:37;3.97;;;2.08;;
77544;SDS011;66672;50.328;7.610;2023-08-12T12:21:03;5.70;;;2.60;;
77544;SDS011;66672;50.328;7.610;2023-08-12T12:23:28;3.80;;;2.47;;
77544;SDS011;66672;50.328;7.610;2023-08-12T12:26:00;4.70;;;2.58;;
77544;SDS011;66672;50.328;7.610;2023-08-12T12:28:26;4.55;;;2.58;;
77544;SDS011;66672;50.328;7.610;2023-08-12T12:30:51;4.50;;;2.40;;
77544;SDS011;66672;50.328;7.610;2023-08-12T12:33:16;4.90;;;2.70;;
77544;SDS011;66672;50.328;7.610;2023-08-12T12:35:42;5.57;;;2.60;;
77544;SDS011;66672;50.328;7.610;2023-08-12T12:38:07;4.80;;;2.40;;
77544;SDS011;66672;50.328;7.610;2023-08-12T12:40:32;6.10;;;2.70;;
77544;SDS011;66672;50.328;7.610;2023-08-12T12:42:57;3.83;;;2.60;;
77544;SDS011;66672;50.328;7.610;2023-08-12T12:45:23;4.93;;;2.13;;
77544;SDS011;66672;50.328;7.610;2023-08-12T12:47:49;4.28;;;2.47;;
77544;SDS011;66672;50.328;7.610;2023-08-12T12:50:14;6.50;;;2.73;;
77544;SDS011;66672;50.328;7.610;2023-08-12T12:52:39;4.43;;;2.57;;
77544;SDS011;66672;50.328;7.610;2023-08-12T12:55:04;4.68;;;2.45;;
77544;SDS011;66672;50.328;7.610;2023-08-12T12:57:30;4.13;;;2.40;;
77544;SDS011;66672;50.328;7.610;2023-08-12T12:59:55;4.13;;;2.90;;
77544;SDS011;66672;50.328;7.610;2023-08-12T13:02:20;4.23;;;2.70;;
77544;SDS011;66672;50.328;7.610;2023-08-12T13:04:45;3.85;;;2.60;;
77544;SDS011;66672;50.328;7.610;2023-08-12T13:07:10;3.50;;;2.25;;
77544;SDS011;66672;50.328;7.610;2023-08-12T13:09:36;4.07;;;2.40;;
77544;SDS011;66672;50.328;7.610;2023-08-12T13:12:01;5.60;;;2.53;;
77544;SDS011;66672;50.328;7.610;2023-08-12T13:14:26;5.70;;;2.53;;
77544;SDS011;66672;50.328;7.610;2023-08-12T13:16:51;5.55;;;2.10;;
77544;SDS011;66672;50.328;7.610;2023-08-12T13:19:16;4.03;;;2.43;;
77544;SDS011;66672;50.328;7.610;2023-08-12T13:21:41;4.07;;;2.57;;
77544;SDS011;66672;50.328;7.610;2023-08-12T13:24:07;6.27;;;2.70;;
77544;SDS011;66672;50.328;7.610;2023-08-12T13:26:32;3.55;;;2.22;;
77544;SDS011;66672;50.328;7.610;2023-08-12T13:28:57;4.90;;;2.50;;
77544;SDS011;66672;50.328;7.610;2023-08-12T13:31:22;5.25;;;2.47;;
77544;SDS011;66672;50.328;7.610;2023-08-12T13:33:48;5.70;;;2.83;;
77544;SDS011;66672;50.328;7.610;2023-08-12T13:36:13;3.67;;;1.80;;
77544;SDS011;66672;50.328;7.610;2023-08-12T13:38:38;3.10;;;1.90;;
77544;SDS011;66672;50.328;7.610;2023-08-12T13:41:03;4.17;;;2.20;;
77544;SDS011;66672;50.328;7.610;2023-08-12T13:43:28;4.30;;;2.47;;
77544;SDS011;66672;50.328;7.610;2023-08-12T13:45:55;3.95;;;2.20;;
77544;SDS011;66672;50.328;7.610;2023-08-12T13:48:20;4.30;;;2.15;;
77544;SDS011;66672;50.328;7.610;2023-08-12T13:50:45;4.00;;;2.00;;
77544;SDS011;66672;50.328;7.610;2023-08-12T13:53:14;3.63;;;1.90;;
77544;SDS011;66672;50.328;7.610;2023-08-12T13:55:39;3.93;;;2.13;;
77544;SDS011;66672;50.328;7.610;2023-08-12T13:58:04;5.25;;;2.30;;
77544;SDS011;66672;50.328;7.610;2023-08-12T14:00:29;4.38;;;2.25;;
77544;SDS011;66672;50.328;7.610;2023-08-12T14:02:55;5.05;;;2.10;;
77544;SDS011;66672;50.328;7.610;2023-08-12T14:05:20;4.47;;;2.22;;
77544;SDS011;66672;50.328;7.610;2023-08-12T14:07:45;3.50;;;2.15;;
77544;SDS011;66672;50.328;7.610;2023-08-12T14:10:10;3.97;;;2.45;;
77544;SDS011;66672;50.328;7.610;2023-08-12T14:12:35;3.40;;;1.90;;
77544;SDS011;66672;50.328;7.610;2023-08-12T14:15:01;4.93;;;2.75;;
77544;SDS011;66672;50.328;7.610;2023-08-12T14:17:26;5.32;;;3.13;;
77544;SDS011;66672;50.328;7.610;2023-08-12T14:19:52;4.63;;;2.50;;
77544;SDS011;66672;50.328;7.610;2023-08-12T14:22:18;4.68;;;2.30;;
77544;SDS011;66672;50.328;7.610;2023-08-12T14:24:43;4.90;;;2.35;;
77544;SDS011;66672;50.328;7.610;2023-08-12T14:27:13;3.97;;;2.35;;
77544;SDS011;66672;50.328;7.610;2023-08-12T14:29:38;5.35;;;2.20;;
77544;SDS011;66672;50.328;7.610;2023-08-12T14:32:03;3.73;;;2.00;;
77544;SDS011;66672;50.328;7.610;2023-08-12T14:34:29;3.53;;;1.50;;